sensor_id;sensor_type;location;lat;lon;timestamp;temperature;humidity
77467;DHT22;66564;42.482;25.548;2023-04-07T00:00:22;7.61;55.20
77467;DHT22;66564;42.482;25.548;2023-04-07T00:02:48;7.64;55.17
77467;DHT22;66564;42.482;25.548;2023-04-07T00:05:14;7.57;56.69
77467;DHT22;66564;42.482;25.548;2023-04-07T00:07:39;7.67;56.44
77467;DHT22;66564;42.482;25.548;2023-04-07T00:10:06;7.70;56.93
77467;DHT22;66564;42.482;25.548;2023-04-07T00:12:32;7.74;56.43
77467;DHT22;66564;42.482;25.548;2023-04-07T00:14:58;7.80;55.39
77467;DHT22;66564;42.482;25.548;2023-04-07T00:17:24;7.80;54.61
77467;DHT22;66564;42.482;25.548;2023-04-07T00:19:49;7.73;54.02
77467;DHT22;66564;42.482;25.548;2023-04-07T00:22:15;7.66;54.80
77467;DHT22;66564;42.482;25.548;2023-04-07T00:24:40;7.66;55.01
77467;DHT22;66564;42.482;25.548;2023-04-07T00:27:06;7.56;55.34
77467;DHT22;66564;42.482;25.548;2023-04-07T00:29:31;7.47;55.52
77467;DHT22;66564;42.482;25.548;2023-04-07T00:31:57;7.47;55.08
77467;DHT22;66564;42.482;25.548;2023-04-07T00:34:23;7.47;56.27
77467;DHT22;66564;42.482;25.548;2023-04-07T00:36:48;7.46;55.94
77467;DHT22;66564;42.482;25.548;2023-04-07T00:39:19;7.57;55.84
77467;DHT22;66564;42.482;25.548;2023-04-07T00:41:46;7.60;56.50
77467;DHT22;66564;42.482;25.548;2023-04-07T00:44:12;7.57;55.66
77467;DHT22;66564;42.482;25.548;2023-04-07T00:46:37;7.44;55.26
77467;DHT22;66564;42.482;25.548;2023-04-07T00:49:03;7.46;55.66
77467;DHT22;66564;42.482;25.548;2023-04-07T00:51:29;7.46;54.82
77467;DHT22;66564;42.482;25.548;2023-04-07T00:53:55;7.42;55.03
77467;DHT22;66564;42.482;25.548;2023-04-07T00:56:21;7.43;55.68
77467;DHT22;66564;42.482;25.548;2023-04-07T00:58:46;7.47;55.76
77467;DHT22;66564;42.482;25.548;2023-04-07T01:01:18;7.39;57.22
77467;DHT22;66564;42.482;25.548;2023-04-07T01:03:52;7.44;58.44
77467;DHT22;66564;42.482;25.548;2023-04-07T01:06:23;7.47;58.78
77467;DHT22;66564;42.482;25.548;2023-04-07T01:11:47;7.53;57.05
77467;DHT22;66564;42.482;25.548;2023-04-07T01:14:17;7.60;57.21
77467;DHT22;66564;42.482;25.548;2023-04-07T01:16:49;7.54;57.08
77467;DHT22;66564;42.482;25.548;2023-04-07T01:19:29;7.47;57.01
77467;DHT22;66564;42.482;25.548;2023-04-07T01:21:57;7.40;57.99
77467;DHT22;66564;42.482;25.548;2023-04-07T01:27:32;7.40;56.97
77467;DHT22;66564;42.482;25.548;2023-04-07T01:30:00;7.30;57.41
77467;DHT22;66564;42.482;25.548;2023-04-07T01:32:29;7.26;57.14
77467;DHT22;66564;42.482;25.548;2023-04-07T01:34:56;7.33;57.56
77467;DHT22;66564;42.482;25.548;2023-04-07T01:37:22;7.26;58.53
77467;DHT22;66564;42.482;25.548;2023-04-07T01:39:49;7.27;58.88
77467;DHT22;66564;42.482;25.548;2023-04-07T01:42:16;7.30;59.36
77467;DHT22;66564;42.482;25.548;2023-04-07T01:44:43;7.36;58.68
77467;DHT22;66564;42.482;25.548;2023-04-07T01:47:10;7.39;58.92
77467;DHT22;66564;42.482;25.548;2023-04-07T01:49:36;7.42;58.79
77467;DHT22;66564;42.482;25.548;2023-04-07T01:52:06;7.43;59.38
77467;DHT22;66564;42.482;25.548;2023-04-07T01:54:33;7.40;59.59
77467;DHT22;66564;42.482;25.548;2023-04-07T01:56:59;7.33;58.70
77467;DHT22;66564;42.482;25.548;2023-04-07T01:59:26;7.29;57.25
77467;DHT22;66564;42.482;25.548;2023-04-07T02:01:51;7.24;57.83
77467;DHT22;66564;42.482;25.548;2023-04-07T02:04:43;7.22;58.34
77467;DHT22;66564;42.482;25.548;2023-04-07T02:07:08;7.20;58.99
77467;DHT22;66564;42.482;25.548;2023-04-07T02:09:37;7.13;59.40
77467;DHT22;66564;42.482;25.548;2023-04-07T02:12:07;7.10;58.58
77467;DHT22;66564;42.482;25.548;2023-04-07T02:14:34;7.10;58.08
77467;DHT22;66564;42.482;25.548;2023-04-07T02:17:01;7.16;60.02
77467;DHT22;66564;42.482;25.548;2023-04-07T02:19:28;7.15;60.11
77467;DHT22;66564;42.482;25.548;2023-04-07T02:21:54;7.15;59.00
77467;DHT22;66564;42.482;25.548;2023-04-07T02:24:20;7.07;59.27
77467;DHT22;66564;42.482;25.548;2023-04-07T02:26:46;7.15;60.11
77467;DHT22;66564;42.482;25.548;2023-04-07T02:29:12;7.24;60.83
77467;DHT22;66564;42.482;25.548;2023-04-07T02:31:38;7.20;58.70
77467;DHT22;66564;42.482;25.548;2023-04-07T02:34:03;7.15;57.88
77467;DHT22;66564;42.482;25.548;2023-04-07T02:36:29;7.10;57.67
77467;DHT22;66564;42.482;25.548;2023-04-07T02:38:55;7.06;57.03
77467;DHT22;66564;42.482;25.548;2023-04-07T02:41:21;7.03;57.08
77467;DHT22;66564;42.482;25.548;2023-04-07T02:43:47;6.86;57.27
77467;DHT22;66564;42.482;25.548;2023-04-07T02:46:12;6.82;57.43
77467;DHT22;66564;42.482;25.548;2023-04-07T02:48:38;6.78;58.00
77467;DHT22;66564;42.482;25.548;2023-04-07T02:51:03;6.82;59.04
77467;DHT22;66564;42.482;25.548;2023-04-07T02:53:29;6.86;60.54
77467;DHT22;66564;42.482;25.548;2023-04-07T02:55:55;6.91;60.52
77467;DHT22;66564;42.482;25.548;2023-04-07T02:58:21;6.93;60.16
77467;DHT22;66564;42.482;25.548;2023-04-07T03:00:47;6.96;60.91
77467;DHT22;66564;42.482;25.548;2023-04-07T03:03:13;6.89;62.45
77467;DHT22;66564;42.482;25.548;2023-04-07T03:05:38;6.96;61.09
77467;DHT22;66564;42.482;25.548;2023-04-07T03:08:04;7.05;61.45
77467;DHT22;66564;42.482;25.548;2023-04-07T03:10:29;7.06;61.09
77467;DHT22;66564;42.482;25.548;2023-04-07T03:12:56;7.03;58.78
77467;DHT22;66564;42.482;25.548;2023-04-07T03:15:21;6.99;57.95
77467;DHT22;66564;42.482;25.548;2023-04-07T03:17:47;7.07;58.92
77467;DHT22;66564;42.482;25.548;2023-04-07T03:20:12;7.00;57.28
77467;DHT22;66564;42.482;25.548;2023-04-07T03:22:38;6.97;58.49
77467;DHT22;66564;42.482;25.548;2023-04-07T03:25:04;7.02;59.13
77467;DHT22;66564;42.482;25.548;2023-04-07T03:27:29;7.00;57.34
77467;DHT22;66564;42.482;25.548;2023-04-07T03:29:55;6.92;54.38
77467;DHT22;66564;42.482;25.548;2023-04-07T03:32:20;6.92;58.29
77467;DHT22;66564;42.482;25.548;2023-04-07T03:34:46;6.97;59.59
77467;DHT22;66564;42.482;25.548;2023-04-07T03:37:11;7.00;59.74
77467;DHT22;66564;42.482;25.548;2023-04-07T03:39:37;7.03;59.26
77467;DHT22;66564;42.482;25.548;2023-04-07T03:42:03;7.03;59.15
77467;DHT22;66564;42.482;25.548;2023-04-07T03:44:28;7.03;58.71
77467;DHT22;66564;42.482;25.548;2023-04-07T03:46:54;7.00;59.27
77467;DHT22;66564;42.482;25.548;2023-04-07T03:49:19;6.95;60.02
77467;DHT22;66564;42.482;25.548;2023-04-07T03:51:45;6.95;59.88
77467;DHT22;66564;42.482;25.548;2023-04-07T03:54:10;6.91;59.23
77467;DHT22;66564;42.482;25.548;2023-04-07T03:56:36;6.86;58.74
77467;DHT22;66564;42.482;25.548;2023-04-07T03:59:02;6.89;60.06
77467;DHT22;66564;42.482;25.548;2023-04-07T04:01:28;6.91;58.81
77467;DHT22;66564;42.482;25.548;2023-04-07T04:03:53;6.88;60.27
77467;DHT22;66564;42.482;25.548;2023-04-07T04:06:19;6.86;61.10
77467;DHT22;66564;42.482;25.548;2023-04-07T04:08:44;6.86;61.09
77467;DHT22;66564;42.482;25.548;2023-04-07T04:11:10;6.96;60.72
77467;DHT22;66564;42.482;25.548;2023-04-07T04:13:36;6.82;60.79
77467;DHT22;66564;42.482;25.548;2023-04-07T04:16:01;6.71;60.79
77467;DHT22;66564;42.482;25.548;2023-04-07T04:18:27;6.71;60.34
77467;DHT22;66564;42.482;25.548;2023-04-07T04:20:52;6.72;59.84
77467;DHT22;66564;42.482;25.548;2023-04-07T04:23:18;6.69;57.78
77467;DHT22;66564;42.482;25.548;2023-04-07T04:25:43;6.65;58.27
77467;DHT22;66564;42.482;25.548;2023-04-07T04:28:09;6.61;59.20
77467;DHT22;66564;42.482;25.548;2023-04-07T04:30:34;6.71;58.54
77467;DHT22;66564;42.482;25.548;2023-04-07T04:33:00;6.67;57.76
77467;DHT22;66564;42.482;25.548;2023-04-07T04:35:25;6.64;58.67
77467;DHT22;66564;42.482;25.548;2023-04-07T04:37:51;6.67;57.89
77467;DHT22;66564;42.482;25.548;2023-04-07T04:40:17;6.75;59.39
77467;DHT22;66564;42.482;25.548;2023-04-07T04:42:43;6.79;60.39
77467;DHT22;66564;42.482;25.548;2023-04-07T04:45:08;6.78;60.68
77467;DHT22;66564;42.482;25.548;2023-04-07T04:47:34;6.79;60.86
77467;DHT22;66564;42.482;25.548;2023-04-07T04:50:00;6.85;61.00
77467;DHT22;66564;42.482;25.548;2023-04-07T04:52:25;6.82;60.06
77467;DHT22;66564;42.482;25.548;2023-04-07T04:54:52;6.85;59.51
77467;DHT22;66564;42.482;25.548;2023-04-07T04:57:17;6.86;59.08
77467;DHT22;66564;42.482;25.548;2023-04-07T04:59:43;6.85;58.72
77467;DHT22;66564;42.482;25.548;2023-04-07T05:02:08;6.88;59.34
77467;DHT22;66564;42.482;25.548;2023-04-07T05:04:34;6.92;59.95
77467;DHT22;66564;42.482;25.548;2023-04-07T05:06:59;6.91;59.12
77467;DHT22;66564;42.482;25.548;2023-04-07T05:09:25;6.91;59.45
77467;DHT22;66564;42.482;25.548;2023-04-07T05:11:51;6.91;58.33
77467;DHT22;66564;42.482;25.548;2023-04-07T05:14:17;6.88;58.34
77467;DHT22;66564;42.482;25.548;2023-04-07T05:16:42;6.86;58.75
77467;DHT22;66564;42.482;25.548;2023-04-07T05:19:09;6.86;58.72
77467;DHT22;66564;42.482;25.548;2023-04-07T05:21:35;6.83;59.27
77467;DHT22;66564;42.482;25.548;2023-04-07T05:24:00;6.88;59.73
77467;DHT22;66564;42.482;25.548;2023-04-07T05:26:26;6.83;60.87
77467;DHT22;66564;42.482;25.548;2023-04-07T05:28:52;6.85;58.78
77467;DHT22;66564;42.482;25.548;2023-04-07T05:31:17;6.89;57.69
77467;DHT22;66564;42.482;25.548;2023-04-07T05:33:43;6.92;58.49
77467;DHT22;66564;42.482;25.548;2023-04-07T05:36:08;6.93;57.86
77467;DHT22;66564;42.482;25.548;2023-04-07T05:38:33;6.86;57.98
77467;DHT22;66564;42.482;25.548;2023-04-07T05:40:59;6.91;57.92
77467;DHT22;66564;42.482;25.548;2023-04-07T05:43:25;6.91;57.84
77467;DHT22;66564;42.482;25.548;2023-04-07T05:45:50;6.96;58.64
77467;DHT22;66564;42.482;25.548;2023-04-07T05:48:16;7.03;57.66
77467;DHT22;66564;42.482;25.548;2023-04-07T05:50:42;7.13;57.18
77467;DHT22;66564;42.482;25.548;2023-04-07T05:53:08;7.20;57.43
77467;DHT22;66564;42.482;25.548;2023-04-07T05:55:33;7.09;55.15
77467;DHT22;66564;42.482;25.548;2023-04-07T05:57:59;7.19;55.56
77467;DHT22;66564;42.482;25.548;2023-04-07T06:00:24;7.29;56.33
77467;DHT22;66564;42.482;25.548;2023-04-07T06:02:50;7.33;55.11
77467;DHT22;66564;42.482;25.548;2023-04-07T06:05:16;7.40;54.93
77467;DHT22;66564;42.482;25.548;2023-04-07T06:07:41;7.46;54.49
77467;DHT22;66564;42.482;25.548;2023-04-07T06:10:07;7.57;54.56
77467;DHT22;66564;42.482;25.548;2023-04-07T06:12:32;7.60;54.66
77467;DHT22;66564;42.482;25.548;2023-04-07T06:14:58;7.63;55.36
77467;DHT22;66564;42.482;25.548;2023-04-07T06:17:24;7.54;54.08
77467;DHT22;66564;42.482;25.548;2023-04-07T06:19:49;7.47;53.75
77467;DHT22;66564;42.482;25.548;2023-04-07T06:22:15;7.53;53.44
77467;DHT22;66564;42.482;25.548;2023-04-07T06:24:41;7.60;54.50
77467;DHT22;66564;42.482;25.548;2023-04-07T06:27:06;7.63;53.65
77467;DHT22;66564;42.482;25.548;2023-04-07T06:29:32;7.69;54.75
77467;DHT22;66564;42.482;25.548;2023-04-07T06:31:58;7.78;54.08
77467;DHT22;66564;42.482;25.548;2023-04-07T06:34:23;7.84;54.28
77467;DHT22;66564;42.482;25.548;2023-04-07T06:36:49;7.88;53.54
77467;DHT22;66564;42.482;25.548;2023-04-07T06:39:14;7.97;52.45
77467;DHT22;66564;42.482;25.548;2023-04-07T06:41:40;8.01;54.11
77467;DHT22;66564;42.482;25.548;2023-04-07T06:44:08;8.05;54.14
77467;DHT22;66564;42.482;25.548;2023-04-07T06:46:35;8.04;53.55
77467;DHT22;66564;42.482;25.548;2023-04-07T06:49:01;8.21;52.42
77467;DHT22;66564;42.482;25.548;2023-04-07T06:51:26;7.80;52.87
77467;DHT22;66564;42.482;25.548;2023-04-07T06:53:52;8.08;52.90
77467;DHT22;66564;42.482;25.548;2023-04-07T06:56:18;8.20;51.80
77467;DHT22;66564;42.482;25.548;2023-04-07T06:58:43;8.34;51.93
77467;DHT22;66564;42.482;25.548;2023-04-07T07:01:09;8.21;51.49
77467;DHT22;66564;42.482;25.548;2023-04-07T07:03:34;8.32;51.65
77467;DHT22;66564;42.482;25.548;2023-04-07T07:06:00;8.35;50.77
77467;DHT22;66564;42.482;25.548;2023-04-07T07:08:26;8.35;49.92
77467;DHT22;66564;42.482;25.548;2023-04-07T07:10:53;8.38;50.12
77467;DHT22;66564;42.482;25.548;2023-04-07T07:13:21;8.12;50.54
77467;DHT22;66564;42.482;25.548;2023-04-07T07:15:47;7.94;50.67
77467;DHT22;66564;42.482;25.548;2023-04-07T07:18:13;7.94;51.58
77467;DHT22;66564;42.482;25.548;2023-04-07T07:20:39;8.04;50.82
77467;DHT22;66564;42.482;25.548;2023-04-07T07:23:04;8.20;51.90
77467;DHT22;66564;42.482;25.548;2023-04-07T07:25:30;7.90;51.86
77467;DHT22;66564;42.482;25.548;2023-04-07T07:27:56;8.04;52.85
77467;DHT22;66564;42.482;25.548;2023-04-07T07:30:22;8.21;52.78
77467;DHT22;66564;42.482;25.548;2023-04-07T07:32:48;8.39;51.15
77467;DHT22;66564;42.482;25.548;2023-04-07T07:35:14;8.49;50.45
77467;DHT22;66564;42.482;25.548;2023-04-07T07:37:40;8.18;51.68
77467;DHT22;66564;42.482;25.548;2023-04-07T07:40:06;8.36;51.53
77467;DHT22;66564;42.482;25.548;2023-04-07T07:42:32;8.59;50.89
77467;DHT22;66564;42.482;25.548;2023-04-07T07:44:58;8.84;48.76
77467;DHT22;66564;42.482;25.548;2023-04-07T07:47:26;8.97;48.49
77467;DHT22;66564;42.482;25.548;2023-04-07T07:49:52;8.79;49.65
77467;DHT22;66564;42.482;25.548;2023-04-07T07:52:18;8.87;48.75
77467;DHT22;66564;42.482;25.548;2023-04-07T07:54:45;9.06;47.87
77467;DHT22;66564;42.482;25.548;2023-04-07T07:57:10;9.23;48.68
77467;DHT22;66564;42.482;25.548;2023-04-07T07:59:37;9.38;48.65
77467;DHT22;66564;42.482;25.548;2023-04-07T08:02:02;9.40;48.03
77467;DHT22;66564;42.482;25.548;2023-04-07T08:04:28;9.57;47.54
77467;DHT22;66564;42.482;25.548;2023-04-07T08:06:53;9.51;45.04
77467;DHT22;66564;42.482;25.548;2023-04-07T08:09:19;9.71;47.44
77467;DHT22;66564;42.482;25.548;2023-04-07T08:11:45;9.95;45.00
77467;DHT22;66564;42.482;25.548;2023-04-07T08:14:13;10.02;44.75
77467;DHT22;66564;42.482;25.548;2023-04-07T08:16:40;10.36;46.41
77467;DHT22;66564;42.482;25.548;2023-04-07T08:19:06;10.70;44.49
77467;DHT22;66564;42.482;25.548;2023-04-07T08:21:31;10.85;43.21
77467;DHT22;66564;42.482;25.548;2023-04-07T08:23:57;10.70;41.24
77467;DHT22;66564;42.482;25.548;2023-04-07T08:26:22;10.97;42.08
77467;DHT22;66564;42.482;25.548;2023-04-07T08:28:49;11.39;42.82
77467;DHT22;66564;42.482;25.548;2023-04-07T08:31:18;11.45;42.63
77467;DHT22;66564;42.482;25.548;2023-04-07T08:33:44;11.78;41.79
77467;DHT22;66564;42.482;25.548;2023-04-07T08:36:09;11.65;39.80
77467;DHT22;66564;42.482;25.548;2023-04-07T08:38:35;12.10;39.96
77467;DHT22;66564;42.482;25.548;2023-04-07T08:41:10;12.12;43.13
77467;DHT22;66564;42.482;25.548;2023-04-07T08:43:37;12.12;40.33
77467;DHT22;66564;42.482;25.548;2023-04-07T08:46:03;12.33;39.37
77467;DHT22;66564;42.482;25.548;2023-04-07T08:48:30;12.61;38.24
77467;DHT22;66564;42.482;25.548;2023-04-07T08:51:06;12.74;38.62
77467;DHT22;66564;42.482;25.548;2023-04-07T08:53:42;12.94;38.66
77467;DHT22;66564;42.482;25.548;2023-04-07T08:56:11;13.00;37.80
77467;DHT22;66564;42.482;25.548;2023-04-07T08:58:37;12.98;36.85
77467;DHT22;66564;42.482;25.548;2023-04-07T09:01:04;12.81;38.67
77467;DHT22;66564;42.482;25.548;2023-04-07T09:03:32;12.91;37.22
77467;DHT22;66564;42.482;25.548;2023-04-07T09:05:59;13.04;36.54
77467;DHT22;66564;42.482;25.548;2023-04-07T09:08:25;12.94;37.85
77467;DHT22;66564;42.482;25.548;2023-04-07T09:10:51;12.88;37.36
77467;DHT22;66564;42.482;25.548;2023-04-07T09:13:17;12.61;38.11
77467;DHT22;66564;42.482;25.548;2023-04-07T09:15:43;12.47;36.88
77467;DHT22;66564;42.482;25.548;2023-04-07T09:18:08;12.61;36.82
77467;DHT22;66564;42.482;25.548;2023-04-07T09:23:27;12.19;38.19
77467;DHT22;66564;42.482;25.548;2023-04-07T09:25:54;11.85;38.95
77467;DHT22;66564;42.482;25.548;2023-04-07T09:28:20;12.13;39.49
77467;DHT22;66564;42.482;25.548;2023-04-07T09:30:53;12.16;40.70
77467;DHT22;66564;42.482;25.548;2023-04-07T09:33:26;12.28;39.80
77467;DHT22;66564;42.482;25.548;2023-04-07T09:35:52;12.03;38.36
77467;DHT22;66564;42.482;25.548;2023-04-07T09:38:18;11.65;39.53
77467;DHT22;66564;42.482;25.548;2023-04-07T09:40:43;11.74;41.04
77467;DHT22;66564;42.482;25.548;2023-04-07T09:43:15;11.81;39.70
77467;DHT22;66564;42.482;25.548;2023-04-07T09:45:42;11.96;40.74
77467;DHT22;66564;42.482;25.548;2023-04-07T09:48:17;12.00;39.58
77467;DHT22;66564;42.482;25.548;2023-04-07T09:50:43;11.69;41.92
77467;DHT22;66564;42.482;25.548;2023-04-07T09:53:16;12.03;42.74
77467;DHT22;66564;42.482;25.548;2023-04-07T09:55:43;12.19;45.79
77467;DHT22;66564;42.482;25.548;2023-04-07T09:58:11;12.47;42.26
77467;DHT22;66564;42.482;25.548;2023-04-07T10:00:41;12.32;39.91
77467;DHT22;66564;42.482;25.548;2023-04-07T10:03:07;12.59;39.57
77467;DHT22;66564;42.482;25.548;2023-04-07T10:05:33;12.79;46.64
77467;DHT22;66564;42.482;25.548;2023-04-07T10:08:01;13.15;45.01
77467;DHT22;66564;42.482;25.548;2023-04-07T10:10:27;13.49;43.81
77467;DHT22;66564;42.482;25.548;2023-04-07T10:12:58;13.78;38.43
77467;DHT22;66564;42.482;25.548;2023-04-07T10:15:23;13.99;37.52
77467;DHT22;66564;42.482;25.548;2023-04-07T10:17:50;13.58;38.46
77467;DHT22;66564;42.482;25.548;2023-04-07T10:23:44;13.93;37.36
77467;DHT22;66564;42.482;25.548;2023-04-07T10:26:19;13.86;37.88
77467;DHT22;66564;42.482;25.548;2023-04-07T10:28:50;13.55;39.67
77467;DHT22;66564;42.482;25.548;2023-04-07T10:31:19;14.01;39.65
77467;DHT22;66564;42.482;25.548;2023-04-07T10:33:50;14.15;37.53
77467;DHT22;66564;42.482;25.548;2023-04-07T10:36:24;14.47;39.33
77467;DHT22;66564;42.482;25.548;2023-04-07T10:41:38;14.63;37.14
77467;DHT22;66564;42.482;25.548;2023-04-07T10:44:46;14.64;35.51
77467;DHT22;66564;42.482;25.548;2023-04-07T10:47:12;14.90;35.43
77467;DHT22;66564;42.482;25.548;2023-04-07T10:49:38;14.22;38.01
77467;DHT22;66564;42.482;25.548;2023-04-07T10:54:38;13.82;37.78
77467;DHT22;66564;42.482;25.548;2023-04-07T10:57:12;13.28;40.16
77467;DHT22;66564;42.482;25.548;2023-04-07T10:59:41;13.21;39.19
77467;DHT22;66564;42.482;25.548;2023-04-07T11:04:46;13.34;40.39
77467;DHT22;66564;42.482;25.548;2023-04-07T11:07:13;13.38;40.85
77467;DHT22;66564;42.482;25.548;2023-04-07T11:09:42;13.72;38.13
77467;DHT22;66564;42.482;25.548;2023-04-07T11:12:08;13.89;37.00
77467;DHT22;66564;42.482;25.548;2023-04-07T11:14:46;13.87;36.63
77467;DHT22;66564;42.482;25.548;2023-04-07T11:17:13;13.55;38.17
77467;DHT22;66564;42.482;25.548;2023-04-07T11:19:52;13.55;37.59
77467;DHT22;66564;42.482;25.548;2023-04-07T11:22:18;13.34;36.68
77467;DHT22;66564;42.482;25.548;2023-04-07T11:24:45;13.28;38.18
77467;DHT22;66564;42.482;25.548;2023-04-07T11:27:12;12.70;37.53
77467;DHT22;66564;42.482;25.548;2023-04-07T11:29:38;12.84;38.36
77467;DHT22;66564;42.482;25.548;2023-04-07T11:32:04;12.87;38.16
77467;DHT22;66564;42.482;25.548;2023-04-07T11:34:34;12.53;38.29
77467;DHT22;66564;42.482;25.548;2023-04-07T11:37:20;12.52;40.94
77467;DHT22;66564;42.482;25.548;2023-04-07T11:39:53;12.73;38.92
77467;DHT22;66564;42.482;25.548;2023-04-07T11:42:37;12.81;40.07
77467;DHT22;66564;42.482;25.548;2023-04-07T11:45:04;12.83;41.59
77467;DHT22;66564;42.482;25.548;2023-04-07T11:47:37;12.63;40.85
77467;DHT22;66564;42.482;25.548;2023-04-07T11:50:03;12.86;40.33
77467;DHT22;66564;42.482;25.548;2023-04-07T11:52:40;12.87;37.85
77467;DHT22;66564;42.482;25.548;2023-04-07T11:55:17;12.98;39.02
77467;DHT22;66564;42.482;25.548;2023-04-07T11:57:50;12.73;38.83
77467;DHT22;66564;42.482;25.548;2023-04-07T12:00:16;12.83;39.87
77467;DHT22;66564;42.482;25.548;2023-04-07T12:03:10;12.52;39.11
77467;DHT22;66564;42.482;25.548;2023-04-07T12:05:45;12.26;40.28
77467;DHT22;66564;42.482;25.548;2023-04-07T12:08:14;12.22;41.02
77467;DHT22;66564;42.482;25.548;2023-04-07T12:10:45;12.20;39.41
77467;DHT22;66564;42.482;25.548;2023-04-07T12:13:12;12.18;40.06
77467;DHT22;66564;42.482;25.548;2023-04-07T12:15:38;12.40;40.54
77467;DHT22;66564;42.482;25.548;2023-04-07T12:18:06;12.33;41.50
77467;DHT22;66564;42.482;25.548;2023-04-07T12:20:32;12.56;40.39
77467;DHT22;66564;42.482;25.548;2023-04-07T12:23:04;12.77;38.38
77467;DHT22;66564;42.482;25.548;2023-04-07T12:36:05;13.17;38.00
77467;DHT22;66564;42.482;25.548;2023-04-07T12:38:34;13.32;38.01
77467;DHT22;66564;42.482;25.548;2023-04-07T12:40:59;13.37;39.43
77467;DHT22;66564;42.482;25.548;2023-04-07T12:43:30;13.42;37.46
77467;DHT22;66564;42.482;25.548;2023-04-07T12:45:59;13.35;36.81
77467;DHT22;66564;42.482;25.548;2023-04-07T12:48:25;13.37;37.86
77467;DHT22;66564;42.482;25.548;2023-04-07T12:50:53;13.28;37.96
77467;DHT22;66564;42.482;25.548;2023-04-07T12:53:19;12.93;37.35
77467;DHT22;66564;42.482;25.548;2023-04-07T12:55:47;13.22;36.72
77467;DHT22;66564;42.482;25.548;2023-04-07T12:58:17;13.04;38.14
77467;DHT22;66564;42.482;25.548;2023-04-07T13:00:44;13.25;37.83
77467;DHT22;66564;42.482;25.548;2023-04-07T13:03:11;13.39;36.07
77467;DHT22;66564;42.482;25.548;2023-04-07T13:05:36;13.32;37.83
77467;DHT22;66564;42.482;25.548;2023-04-07T13:08:02;13.25;37.86
77467;DHT22;66564;42.482;25.548;2023-04-07T13:10:28;13.18;36.93
77467;DHT22;66564;42.482;25.548;2023-04-07T13:12:54;13.25;36.62
77467;DHT22;66564;42.482;25.548;2023-04-07T13:15:27;13.37;38.54
77467;DHT22;66564;42.482;25.548;2023-04-07T13:18:02;13.35;36.11
77467;DHT22;66564;42.482;25.548;2023-04-07T13:20:28;13.12;36.30
77467;DHT22;66564;42.482;25.548;2023-04-07T13:22:54;13.06;36.48
77467;DHT22;66564;42.482;25.548;2023-04-07T13:25:20;13.06;36.69
77467;DHT22;66564;42.482;25.548;2023-04-07T13:27:46;12.76;37.30
77467;DHT22;66564;42.482;25.548;2023-04-07T13:30:12;12.54;38.07
77467;DHT22;66564;42.482;25.548;2023-04-07T13:32:38;12.77;38.34
77467;DHT22;66564;42.482;25.548;2023-04-07T13:35:04;12.84;38.00
77467;DHT22;66564;42.482;25.548;2023-04-07T13:37:29;12.54;38.05
77467;DHT22;66564;42.482;25.548;2023-04-07T13:39:55;12.53;38.61
77467;DHT22;66564;42.482;25.548;2023-04-07T13:42:20;12.59;38.62
77467;DHT22;66564;42.482;25.548;2023-04-07T13:44:46;12.66;39.38
77467;DHT22;66564;42.482;25.548;2023-04-07T13:47:12;12.43;38.57
77467;DHT22;66564;42.482;25.548;2023-04-07T13:49:46;12.34;38.54
77467;DHT22;66564;42.482;25.548;2023-04-07T13:52:12;12.20;38.42
77467;DHT22;66564;42.482;25.548;2023-04-07T13:54:38;12.22;39.37
77467;DHT22;66564;42.482;25.548;2023-04-07T13:57:04;12.20;39.07
77467;DHT22;66564;42.482;25.548;2023-04-07T13:59:29;12.00;40.19
77467;DHT22;66564;42.482;25.548;2023-04-07T14:01:55;11.89;39.78
77467;DHT22;66564;42.482;25.548;2023-04-07T14:04:20;11.68;39.68
77467;DHT22;66564;42.482;25.548;2023-04-07T14:06:47;11.48;40.78
77467;DHT22;66564;42.482;25.548;2023-04-07T14:09:12;11.35;41.42
77467;DHT22;66564;42.482;25.548;2023-04-07T14:11:38;11.34;41.89
77467;DHT22;66564;42.482;25.548;2023-04-07T14:14:03;11.47;41.87
77467;DHT22;66564;42.482;25.548;2023-04-07T14:16:30;11.32;41.06
77467;DHT22;66564;42.482;25.548;2023-04-07T14:18:56;11.31;40.86
77467;DHT22;66564;42.482;25.548;2023-04-07T14:21:23;11.38;41.45
77467;DHT22;66564;42.482;25.548;2023-04-07T14:23:48;11.39;41.69
77467;DHT22;66564;42.482;25.548;2023-04-07T14:26:14;11.41;42.07
77467;DHT22;66564;42.482;25.548;2023-04-07T14:28:40;11.10;41.87
77467;DHT22;66564;42.482;25.548;2023-04-07T14:31:06;11.23;40.95
77467;DHT22;66564;42.482;25.548;2023-04-07T14:33:36;11.20;42.15
77467;DHT22;66564;42.482;25.548;2023-04-07T14:36:01;11.00;42.14
77467;DHT22;66564;42.482;25.548;2023-04-07T14:38:27;11.03;42.04
77467;DHT22;66564;42.482;25.548;2023-04-07T14:40:52;10.93;42.36
77467;DHT22;66564;42.482;25.548;2023-04-07T14:43:18;11.00;41.84
77467;DHT22;66564;42.482;25.548;2023-04-07T14:45:44;11.01;42.25
77467;DHT22;66564;42.482;25.548;2023-04-07T14:48:09;10.97;42.41
77467;DHT22;66564;42.482;25.548;2023-04-07T14:50:36;11.04;42.88
77467;DHT22;66564;42.482;25.548;2023-04-07T14:53:01;11.01;43.35
77467;DHT22;66564;42.482;25.548;2023-04-07T14:55:27;11.03;43.25
77467;DHT22;66564;42.482;25.548;2023-04-07T14:57:55;10.85;43.19
77467;DHT22;66564;42.482;25.548;2023-04-07T15:00:20;10.29;44.88
77467;DHT22;66564;42.482;25.548;2023-04-07T15:02:46;10.56;43.90
77467;DHT22;66564;42.482;25.548;2023-04-07T15:05:11;10.56;44.29
77467;DHT22;66564;42.482;25.548;2023-04-07T15:07:37;10.66;43.40
77467;DHT22;66564;42.482;25.548;2023-04-07T15:10:02;10.57;43.73
77467;DHT22;66564;42.482;25.548;2023-04-07T15:12:28;10.28;44.81
77467;DHT22;66564;42.482;25.548;2023-04-07T15:14:56;10.46;45.35
77467;DHT22;66564;42.482;25.548;2023-04-07T15:17:21;10.62;44.39
77467;DHT22;66564;42.482;25.548;2023-04-07T15:19:47;10.59;45.08
77467;DHT22;66564;42.482;25.548;2023-04-07T15:22:12;10.46;44.52
77467;DHT22;66564;42.482;25.548;2023-04-07T15:24:38;10.46;44.60
77467;DHT22;66564;42.482;25.548;2023-04-07T15:27:04;10.13;45.18
77467;DHT22;66564;42.482;25.548;2023-04-07T15:29:33;10.16;45.57
77467;DHT22;66564;42.482;25.548;2023-04-07T15:31:58;10.15;47.17
77467;DHT22;66564;42.482;25.548;2023-04-07T15:34:24;10.10;45.73
77467;DHT22;66564;42.482;25.548;2023-04-07T15:36:49;10.10;46.35
77467;DHT22;66564;42.482;25.548;2023-04-07T15:39:15;10.19;46.69
77467;DHT22;66564;42.482;25.548;2023-04-07T15:41:41;9.99;46.91
77467;DHT22;66564;42.482;25.548;2023-04-07T15:44:06;10.09;46.82
77467;DHT22;66564;42.482;25.548;2023-04-07T15:46:32;10.08;47.28
77467;DHT22;66564;42.482;25.548;2023-04-07T15:48:59;9.82;48.61
77467;DHT22;66564;42.482;25.548;2023-04-07T15:51:25;9.94;47.06
77467;DHT22;66564;42.482;25.548;2023-04-07T15:53:52;9.96;47.00